Nearby METAR Reports

 

KSEE - San Diego/Santee, California, USA
Distance from station: E 4mi, 6km
Updated: 04/24/2019 8:47am
Haze, Clear
Haze, Clear
 Wind from calm
Wind: Calm
Temperature: 61°F , 16°C
Dew Point: 55°F , 13°C
Humidity: 83%
Barometer: 30.03 inHg , 1016.9 hPa
Summary: Haze
Clouds: Clear
Visibility: 6 miles , 10 km
2019/04/24 15:47 KSEE 241547Z 00000KT 6SM HZ SKC 16/13 A3003
KMYF - San Diego/Mntgmy, California, USA
Distance from station: W 6mi, 10km
Updated: 04/24/2019 9:30am
Haze, Mostly cloudy
Haze, Mostly cloudy
 Wind from varies
Wind: varies 6 mph , 9 km/h
Temperature: 61°F , 16°C
Dew Point: 55°F , 13°C
Humidity: 83%
Barometer: 30.04 inHg , 1017.3 hPa
Summary: Haze
Clouds: Mostly cloudy
Visibility: 3 miles , 5 km
Cloud details: Mostly cloudy 700 ft
2019/04/24 16:30 KMYF 241630Z VRB05KT 3SM HZ BKN007 16/13 A3004 RMK AO2 T01610128
 
KNKX - Miramar Nas/San, California, USA
Distance from station: WNW 7mi, 11km
Updated: 04/24/2019 9:30am
Mist, Few clouds
Mist, Few clouds
 Wind from varies
Wind: varies 3 mph , 6 km/h
Temperature: 66°F , 19°C
Dew Point: 55°F , 13°C
Humidity: 68%
Barometer: 30.03 inHg , 1016.9 hPa
Summary: Mist
Clouds: Few Clouds
Visibility: 4 miles , 6 km
Cloud details: Few Clouds 900 ft
2019/04/24 16:30 KNKX 241630Z VRB03KT 4SM BR FEW009 19/13 A3003 RMK AO2 T01940133
KSAN - San Diego, California, USA
Distance from station: WSW 11mi, 17km
Updated: 04/24/2019 9:39am
Mist, Overcast
Mist, Overcast
 Wind from S
Wind: S 5 mph , 7 km/h
Temperature: 61°F , 16°C
Dew Point: 55°F , 13°C
Humidity: 83%
Barometer: 30.06 inHg , 1017.9 hPa
Summary: Mist
Clouds: Overcast
Visibility: 2 1/2 miles , 4 km
Cloud details: Overcast 400 ft
2019/04/24 16:39 KSAN 241639Z 19004KT 2 1/2SM BR OVC004 16/13 A3006 RMK AO2 T01560133
 
KNZY - North Island Nas, California, USA
Distance from station: SW 13mi, 22km
Updated: 04/24/2019 9:19am
Mist, Overcast
Mist, Overcast
 Wind from S
Wind: S 7 mph , 11 km/h
Temperature: 59°F , 15°C
Dew Point: 55°F , 13°C
Humidity: 88%
Barometer: 30.03 inHg , 1016.9 hPa
Summary: Mist
Clouds: Overcast
Visibility: 2 miles , 3 km
Cloud details: Overcast 400 ft
2019/04/24 16:19 KNZY 241619Z 18006KT 2SM BR OVC004 15/13 A3003 RMK AO2 DZE19 CIG 002V007 P0000 T01500133
KRNM - Ramona, California, USA
Distance from station: NNE 16mi, 26km
Updated: 04/24/2019 8:53am
Clear
Clear
 Wind from calm
Wind: Calm
Temperature: 70°F , 21°C
Dew Point: 46°F , 8°C
Humidity: 43%
Barometer: 30.02 inHg , 1016.6 hPa
Clouds: Clear
Visibility: 10 miles , 16 km
2019/04/24 15:53 KRNM 241553Z 00000KT 10SM CLR 21/08 A3002 RMK AO2 SLP155 T02110083
 
KSDM - San Diego/Brown, California, USA
Distance from station: S 16mi, 26km
Updated: 04/24/2019 8:53am
Haze, Clear
Haze, Clear
 Wind from calm
Wind: Calm
Temperature: 63°F , 17°C
Dew Point: 57°F , 14°C
Humidity: 83%
Barometer: 30.03 inHg , 1016.9 hPa
Summary: Haze
Clouds: Clear
Visibility: 3 miles , 5 km
2019/04/24 15:53 KSDM 241553Z 00000KT 3SM HZ CLR 17/14 A3003 RMK AO2 SLP166 T01720139
KNRS - Imperial Beach, California, USA
Distance from station: SSW 18mi, 29km
Updated: 04/24/2019 9:17am
Mist, Overcast
Mist, Overcast
 Wind from SSW
Wind: SSW 8 mph , 13 km/h
Temperature: 61°F , 16°C
Dew Point: 55°F , 13°C
Humidity: 83%
Barometer: 30.05 inHg , 1017.6 hPa
Summary: Mist
Clouds: Overcast
Visibility: 4 miles , 6 km
Cloud details: Overcast 600 ft
2019/04/24 16:17 KNRS 241617Z 21007KT 4SM BR OVC006 16/13 A3005 RMK AO2 CIG 003V009 T01560128 $
 
MMTJ - Tijuana Intl Arp, Mexico
Distance from station: S 20mi, 32km
Updated: 04/24/2019 8:42am
Mist, Clear
Mist, Clear
 Wind from calm
Wind: Calm
Temperature: 61°F , 16°C
Dew Point: 59°F , 15°C
Humidity: 94%
Barometer: 30.05 inHg , 1017.6 hPa
Summary: Mist
Clouds: Clear
Visibility: 2 miles , 3 km
2019/04/24 15:42 MMTJ 241542Z 00000KT 2SM BR SKC 16/15 A3005 RMK HZY ISOL ST
KCRQ - Carlsbad, California, USA
Distance from station: NW 26mi, 43km
Updated: 04/24/2019 9:08am
Mist, Overcast
Mist, Overcast
 Wind from ESE
Wind: ESE 5 mph , 7 km/h
Temperature: 61°F , 16°C
Dew Point: 55°F , 13°C
Humidity: 83%
Barometer: 30.02 inHg , 1016.6 hPa
Summary: Mist
Clouds: Overcast
Visibility: 1 mile , 2 km
Cloud details: Overcast 300 ft
2019/04/24 16:08 KCRQ 241608Z 12004KT 1SM R24/P6000FT BR OVC003 16/13 A3002 RMK AO2 T01560133
 
KOKB - Oceanside, California, USA
Distance from station: NW 33mi, 54km
Updated: 04/24/2019 8:52am
Mist, Overcast
Mist, Overcast
 Wind from calm
Wind: Calm
Temperature: 61°F , 16°C
Dew Point: 57°F , 14°C
Humidity: 88%
Barometer: 30.02 inHg , 1016.6 hPa
Summary: Mist
Clouds: Overcast
Visibility: 3 miles , 5 km
Cloud details: Overcast 500 ft
2019/04/24 15:52 KOKB 241552Z AUTO 00000KT 3SM BR OVC005 16/14 A3002 RMK AO2 SLP165 T01610139
KCZZ - Campo, California, USA
Distance from station: ESE 35mi, 56km
Updated: 04/24/2019 8:52am

 Wind from SSW
Wind: SSW 3 mph , 6 km/h
Temperature: 66°F , 19°C
Dew Point: 43°F , 6°C
Humidity: 43%
Barometer: 30.02 inHg , 1016.6 hPa
2019/04/24 15:52 KCZZ 241552Z AUTO 20003KT 19/06 A3002 RMK AO1 SLP138 T01890056
 
KNFG - Camp Pendleton, California, USA
Distance from station: NNW 37mi, 59km
Updated: 04/24/2019 8:55am
Mist, Overcast
Mist, Overcast
 Wind from calm
Wind: Calm
Temperature: 57°F , 14°C
Dew Point: 57°F , 14°C
Humidity: 100%
Barometer: 30.03 inHg , 1016.9 hPa
Summary: Mist
Clouds: Overcast
Visibility: 2 1/2 miles , 4 km
Cloud details: Overcast 300 ft
2019/04/24 15:55 KNFG 241555Z 00000KT 2 1/2SM BR OVC003 14/14 A3003 RMK AO2 SLP167 T01390139 $
KRIV - Riverside/March, California, USA
Distance from station: N 74mi, 119km
Updated: 04/24/2019 8:58am
Clear
Clear
 Wind from calm
Wind: Calm
Temperature: 68°F , 20°C
Dew Point: 48°F , 9°C
Humidity: 49%
Barometer: 30.02 inHg , 1016.6 hPa
Clouds: Clear
Visibility: 10 miles , 16 km
2019/04/24 15:58 KRIV 241558Z AUTO 00000KT 10SM CLR 20/09 A3002 RMK AO2 SLP158 T01990089
 
KTRM - Thermal/Palm Spg, California, USA
Distance from station: NE 75mi, 121km
Updated: 04/24/2019 8:52am
Clear
Clear
 Wind from NNW
Wind: NNW 13 mph , 20 km/h
Temperature: 90°F , 32°C
Dew Point: 39°F , 4°C
Humidity: 17%
Barometer: 29.85 inHg , 1010.8 hPa
Clouds: Clear
Visibility: 10 miles , 16 km
2019/04/24 15:52 KTRM 241552Z AUTO 34011KT 10SM CLR 32/04 A2985 RMK AO2 SLP112 T03220039
KPSP - Palm Springs, California, USA
Distance from station: NNE 76mi, 122km
Updated: 04/24/2019 8:53am
Clear
Clear
 Wind from SW
Wind: SW 3 mph , 6 km/h
Temperature: 84°F , 29°C
Dew Point: 39°F , 4°C
Humidity: 20%
Barometer: 29.91 inHg , 1012.9 hPa
Clouds: Clear
Visibility: 10 miles , 16 km
2019/04/24 15:53 KPSP 241553Z 22003KT 10SM CLR 29/04 A2991 RMK AO2 SLP125 T02940044
 
KSNA - Costa Mesa, California, USA
Distance from station: NW 76mi, 123km
Updated: 04/24/2019 9:36am
Overcast
Overcast
 Wind from calm
Wind: Calm
Temperature: 63°F , 17°C
Dew Point: 55°F , 13°C
Humidity: 77%
Barometer: 30.02 inHg , 1016.6 hPa
Clouds: Overcast
Visibility: 7 miles , 11 km
Cloud details: Overcast 1100 ft
2019/04/24 16:36 KSNA 241636Z 00000KT 7SM OVC011 17/13 A3002 RMK AO2 T01720128
KNJK - El Centro Naf, California, USA
Distance from station: E 79mi, 127km
Updated: 04/24/2019 8:56am
Clear
Clear
 Wind from WSW
Wind: WSW 3 mph , 6 km/h
Temperature: 84°F , 29°C
Dew Point: 37°F , 3°C
Humidity: 19%
Barometer: 29.89 inHg , 1012.2 hPa
Clouds: Clear
Visibility: 10 miles , 16 km
2019/04/24 15:56 KNJK 241556Z 25003KT 10SM CLR 29/03 A2989 RMK SLP138 T02890028
 
KAJO - Corona Muni, California, USA
Distance from station: NNW 82mi, 132km
Updated: 04/24/2019 8:56am
Clear
Clear
 Wind from calm
Wind: Calm
Temperature: 64°F , 18°C
Dew Point: 55°F , 13°C
Humidity: 73%
Barometer: 30.01 inHg , 1016.3 hPa
Clouds: Clear
Visibility: 9 miles , 14 km
2019/04/24 15:56 KAJO 241556Z AUTO 00000KT 9SM CLR 18/13 A3001 RMK AO2 SLP172 T01780128